createdAt,value
2019-03-28T00:02:42.510Z,17.10
2019-03-28T00:05:28.804Z,15.83
2019-03-28T00:08:14.870Z,19.57
2019-03-28T00:11:02.329Z,17.75
2019-03-28T00:13:48.201Z,20.00
2019-03-28T00:16:34.711Z,19.48
2019-03-28T00:22:06.344Z,17.20
2019-03-28T00:24:59.151Z,20.62
2019-03-28T00:27:45.067Z,18.57
2019-03-28T00:30:31.567Z,16.35
2019-03-28T00:33:18.393Z,18.95
2019-03-28T00:36:04.382Z,18.32
2019-03-28T00:38:50.324Z,17.90
2019-03-28T00:41:36.748Z,22.42
2019-03-28T00:44:22.720Z,21.17
2019-03-28T00:47:09.071Z,20.62
2019-03-28T00:49:55.567Z,21.90
2019-03-28T00:52:41.977Z,20.55
2019-03-28T00:55:27.843Z,20.95
2019-03-28T00:58:13.783Z,23.00
2019-03-28T01:00:59.958Z,18.50
2019-03-28T01:03:46.165Z,20.48
2019-03-28T01:06:32.271Z,21.93
2019-03-28T01:09:18.608Z,21.17
2019-03-28T01:12:04.444Z,20.60
2019-03-28T01:14:50.863Z,23.18
2019-03-28T01:17:36.803Z,24.12
2019-03-28T01:20:22.562Z,23.02
2019-03-28T01:25:53.828Z,24.72
2019-03-28T01:28:39.641Z,20.02
2019-03-28T01:31:25.791Z,20.97
2019-03-28T01:34:12.023Z,24.45
2019-03-28T01:39:43.349Z,19.12
2019-03-28T01:42:29.045Z,18.57
2019-03-28T01:45:15.110Z,23.65
2019-03-28T01:48:00.929Z,22.52
2019-03-28T01:50:46.992Z,20.60
2019-03-28T01:53:33.412Z,23.40
2019-03-28T01:56:19.236Z,24.30
2019-03-28T01:59:05.281Z,24.37
2019-03-28T02:01:51.750Z,25.20
2019-03-28T02:04:38.120Z,21.55
2019-03-28T02:07:25.180Z,21.73
2019-03-28T02:10:11.811Z,22.00
2019-03-28T02:12:57.828Z,23.00
2019-03-28T02:18:29.407Z,20.30
2019-03-28T02:21:15.686Z,22.15
2019-03-28T02:24:01.472Z,24.65
2019-03-28T02:26:47.344Z,20.27
2019-03-28T02:32:19.852Z,19.20
2019-03-28T02:35:05.670Z,21.40
2019-03-28T02:37:52.238Z,23.00
2019-03-28T02:40:38.292Z,24.35
2019-03-28T02:43:24.238Z,22.90
2019-03-28T02:46:10.482Z,23.55
2019-03-28T02:48:56.429Z,24.02
2019-03-28T02:51:43.072Z,24.55
2019-03-28T02:54:29.195Z,25.23
2019-03-28T02:57:15.281Z,23.83
2019-03-28T03:00:01.678Z,25.40
2019-03-28T03:02:47.554Z,23.32
2019-03-28T03:05:33.813Z,29.25
2019-03-28T03:11:05.808Z,22.75
2019-03-28T03:13:51.795Z,26.68
2019-03-28T03:16:37.536Z,24.55
2019-03-28T03:19:23.430Z,26.48
2019-03-28T03:22:10.062Z,24.27
2019-03-28T03:24:58.474Z,28.30
2019-03-28T03:27:56.933Z,24.27
2019-03-28T03:30:32.320Z,25.43
2019-03-28T03:33:18.502Z,24.32
2019-03-28T03:36:04.820Z,27.82
2019-03-28T03:38:50.799Z,26.50
2019-03-28T03:41:37.126Z,24.43
2019-03-28T03:44:23.561Z,25.50
2019-03-28T03:47:09.369Z,20.43
2019-03-28T03:49:56.432Z,28.42
2019-03-28T03:52:42.752Z,22.62
2019-03-28T03:55:30.004Z,24.80
2019-03-28T03:58:17.876Z,22.22
2019-03-28T04:01:03.958Z,25.68
2019-03-28T04:03:49.963Z,21.68
2019-03-28T04:06:36.346Z,25.72
2019-03-28T04:09:22.695Z,25.50
2019-03-28T04:12:09.390Z,24.60
2019-03-28T04:14:55.183Z,21.27
2019-03-28T04:17:41.502Z,25.70
2019-03-28T04:20:27.347Z,25.70
2019-03-28T04:23:13.261Z,26.37
2019-03-28T04:25:59.665Z,24.10
2019-03-28T04:28:45.608Z,22.75
2019-03-28T04:31:31.983Z,23.57
2019-03-28T04:34:17.848Z,21.23
2019-03-28T04:37:03.693Z,19.15
2019-03-28T04:39:49.452Z,23.05
2019-03-28T04:45:21.275Z,19.23
2019-03-28T04:48:07.200Z,19.15
2019-03-28T04:50:56.096Z,22.45
2019-03-28T04:53:42.553Z,20.92
2019-03-28T04:56:28.463Z,18.00
2019-03-28T04:59:14.837Z,16.17
2019-03-28T05:02:03.636Z,18.95
2019-03-28T05:04:49.611Z,16.77
2019-03-28T05:07:35.927Z,17.98
2019-03-28T05:10:23.311Z,17.42
2019-03-28T05:13:13.898Z,16.60
2019-03-28T05:16:00.060Z,18.52
2019-03-28T05:18:45.883Z,14.33
2019-03-28T05:21:31.900Z,14.80
2019-03-28T05:24:18.298Z,16.12
2019-03-28T05:27:04.187Z,15.65
2019-03-28T05:29:49.983Z,17.85
2019-03-28T05:32:35.985Z,15.08
2019-03-28T05:35:21.876Z,16.52
2019-03-28T05:38:07.818Z,16.62
2019-03-28T05:40:53.605Z,16.90
2019-03-28T05:43:39.560Z,13.90
2019-03-28T05:46:25.566Z,14.35
2019-03-28T05:49:11.403Z,15.78
2019-03-28T05:51:57.297Z,14.95
2019-03-28T05:54:43.639Z,13.38
2019-03-28T05:57:29.495Z,13.78
2019-03-28T06:00:16.031Z,14.98
2019-03-28T06:03:02.284Z,15.68
2019-03-28T06:05:48.519Z,17.32
2019-03-28T06:08:34.683Z,12.98
2019-03-28T06:11:20.835Z,13.03
2019-03-28T06:14:06.796Z,14.28
2019-03-28T06:16:53.292Z,11.70
2019-03-28T06:19:39.381Z,14.07
2019-03-28T06:22:25.338Z,14.05
2019-03-28T06:25:11.422Z,12.28
2019-03-28T06:27:57.377Z,13.53
2019-03-28T06:30:44.437Z,13.83
2019-03-28T06:33:30.695Z,12.82
2019-03-28T06:36:16.459Z,13.88
2019-03-28T06:39:02.935Z,12.25
2019-03-28T06:41:48.818Z,13.45
2019-03-28T06:44:35.089Z,15.95
2019-03-28T06:47:22.090Z,17.37
2019-03-28T06:50:09.347Z,16.42
2019-03-28T06:52:55.391Z,16.75
2019-03-28T06:55:41.447Z,17.00
2019-03-28T06:58:27.286Z,15.10
2019-03-28T07:01:13.238Z,18.92
2019-03-28T07:03:59.204Z,18.75
2019-03-28T07:06:45.139Z,20.60
2019-03-28T07:09:31.599Z,20.65
2019-03-28T07:12:18.392Z,16.52
2019-03-28T07:15:04.737Z,15.48
2019-03-28T07:17:51.105Z,17.92
2019-03-28T07:20:37.934Z,15.15
2019-03-28T07:23:24.043Z,16.97
2019-03-28T07:26:10.680Z,17.07
2019-03-28T07:28:57.003Z,20.10
2019-03-28T07:31:43.219Z,17.35
2019-03-28T07:34:29.518Z,22.35
2019-03-28T07:37:15.397Z,17.77
2019-03-28T07:40:01.772Z,18.90
2019-03-28T07:42:48.285Z,34.25
2019-03-28T07:45:34.746Z,27.55
2019-03-28T07:48:21.260Z,26.45
2019-03-28T07:51:07.262Z,27.65
2019-03-28T07:53:53.271Z,26.48
2019-03-28T07:56:39.167Z,24.32
2019-03-28T07:59:25.596Z,23.10
2019-03-28T08:02:11.865Z,25.60
2019-03-28T08:04:57.824Z,22.17
2019-03-28T08:07:45.732Z,24.25
2019-03-28T08:10:31.647Z,23.73
2019-03-28T08:16:02.948Z,21.20
2019-03-28T08:18:48.703Z,24.18
2019-03-28T08:21:34.863Z,21.40
2019-03-28T08:24:21.023Z,19.32
2019-03-28T08:27:07.375Z,21.27
2019-03-28T08:29:53.353Z,22.70
2019-03-28T08:32:40.097Z,19.37
2019-03-28T08:35:26.512Z,18.05
2019-03-28T08:38:12.530Z,18.50
2019-03-28T08:40:58.509Z,16.80
2019-03-28T08:43:45.303Z,22.30
2019-03-28T08:46:31.542Z,19.12
2019-03-28T08:49:17.818Z,17.12
2019-03-28T08:52:04.279Z,14.83
2019-03-28T08:54:50.109Z,16.87
2019-03-28T08:57:36.431Z,17.00
2019-03-28T09:00:33.061Z,18.82
2019-03-28T09:03:10.147Z,17.17
2019-03-28T09:05:56.188Z,15.30
2019-03-28T09:08:42.404Z,14.55
2019-03-28T09:11:28.520Z,13.45
2019-03-28T09:14:14.896Z,12.23
2019-03-28T09:17:00.892Z,11.93
2019-03-28T09:19:46.700Z,13.15
2019-03-28T09:25:18.139Z,11.00
2019-03-28T09:28:04.064Z,10.72
2019-03-28T09:30:50.584Z,11.63
2019-03-28T09:33:36.789Z,12.35
2019-03-28T09:36:22.579Z,13.55
2019-03-28T09:39:08.360Z,13.38
2019-03-28T09:41:54.101Z,10.75
2019-03-28T09:44:43.047Z,11.88
2019-03-28T09:47:30.297Z,10.23
2019-03-28T09:50:16.459Z,10.10
2019-03-28T09:53:02.297Z,9.00
2019-03-28T09:55:48.168Z,11.65
2019-03-28T09:58:34.366Z,10.58
2019-03-28T10:04:06.574Z,10.45
2019-03-28T10:06:52.914Z,9.78
2019-03-28T10:09:39.220Z,10.30
2019-03-28T10:12:25.227Z,9.30
2019-03-28T10:15:11.631Z,10.98
2019-03-28T10:17:59.734Z,9.25
2019-03-28T10:20:45.471Z,9.75
2019-03-28T10:23:31.264Z,6.58
2019-03-28T10:26:17.410Z,9.65
2019-03-28T10:29:03.146Z,7.85
2019-03-28T10:31:52.111Z,9.85
2019-03-28T10:34:38.028Z,7.65
2019-03-28T10:37:23.735Z,9.80
2019-03-28T10:40:09.708Z,7.25
2019-03-28T10:42:55.683Z,7.70
2019-03-28T10:45:41.725Z,7.03
2019-03-28T10:48:27.719Z,10.13
2019-03-28T10:51:13.671Z,8.65
2019-03-28T10:53:59.600Z,9.25
2019-03-28T10:56:52.001Z,7.20
2019-03-28T10:59:33.884Z,8.20
2019-03-28T11:02:19.732Z,9.40
2019-03-28T11:05:05.811Z,6.47
2019-03-28T11:07:52.126Z,6.90
2019-03-28T11:10:38.119Z,7.00
2019-03-28T11:13:24.341Z,8.18
2019-03-28T11:16:10.741Z,8.20
2019-03-28T11:18:57.049Z,7.03
2019-03-28T11:21:43.167Z,9.78
2019-03-28T11:24:28.952Z,6.87
2019-03-28T11:30:00.425Z,6.58
2019-03-28T11:32:46.499Z,7.03
2019-03-28T11:35:32.885Z,9.05
2019-03-28T11:38:19.103Z,6.30
2019-03-28T11:41:05.208Z,6.28
2019-03-28T11:43:51.073Z,8.60
2019-03-28T11:46:37.377Z,5.97
2019-03-28T11:49:23.979Z,6.25
2019-03-28T11:52:09.855Z,4.92
2019-03-28T11:54:56.423Z,6.87
2019-03-28T11:57:42.504Z,5.75
2019-03-28T12:00:29.491Z,5.83
2019-03-28T12:03:15.486Z,6.58
2019-03-28T12:06:01.900Z,6.47
2019-03-28T12:08:48.177Z,5.90
2019-03-28T12:14:19.400Z,7.30
2019-03-28T12:17:05.176Z,7.00
2019-03-28T12:19:52.230Z,5.35
2019-03-28T12:22:41.474Z,4.70
2019-03-28T12:25:27.243Z,5.75
2019-03-28T12:30:58.477Z,4.45
2019-03-28T12:33:44.222Z,5.50
2019-03-28T12:36:30.345Z,5.15
2019-03-28T12:39:16.552Z,7.65
2019-03-28T12:42:02.486Z,4.65
2019-03-28T12:44:57.034Z,6.70
2019-03-28T12:47:42.327Z,6.28
2019-03-28T12:50:24.338Z,4.97
2019-03-28T12:53:12.617Z,5.33
2019-03-28T12:55:58.857Z,9.50
2019-03-28T12:58:44.714Z,4.47
2019-03-28T13:04:16.511Z,5.47
2019-03-28T13:07:02.697Z,6.00
2019-03-28T13:09:49.312Z,6.05
2019-03-28T13:12:38.191Z,4.45
2019-03-28T13:15:34.898Z,5.25
2019-03-28T13:18:21.570Z,5.17
2019-03-28T13:21:13.833Z,4.20
2019-03-28T13:23:57.731Z,5.42
2019-03-28T13:26:46.119Z,5.80
2019-03-28T13:29:32.545Z,4.72
2019-03-28T13:32:23.106Z,4.85
2019-03-28T13:35:09.495Z,5.97
2019-03-28T13:37:58.138Z,7.72
2019-03-28T13:40:44.789Z,6.25
2019-03-28T13:43:32.137Z,4.22
2019-03-28T13:46:22.602Z,5.30
2019-03-28T13:49:08.666Z,12.28
2019-03-28T13:51:55.082Z,7.55
2019-03-28T13:54:41.704Z,7.70
2019-03-28T13:57:27.936Z,7.28
2019-03-28T14:00:14.790Z,10.45
2019-03-28T14:03:01.805Z,7.08
2019-03-28T14:05:47.889Z,9.33
2019-03-28T14:08:33.781Z,8.95
2019-03-28T14:11:20.613Z,6.95
2019-03-28T14:14:06.697Z,11.12
2019-03-28T14:16:53.341Z,8.48
2019-03-28T14:19:39.827Z,9.53
2019-03-28T14:22:26.713Z,6.87
2019-03-28T14:25:12.660Z,5.58
2019-03-28T14:27:59.097Z,5.22
2019-03-28T14:30:44.857Z,5.78
2019-03-28T14:33:31.211Z,4.67
2019-03-28T14:36:18.516Z,6.40
2019-03-28T14:39:06.386Z,6.33
2019-03-28T14:41:52.586Z,5.15
2019-03-28T14:44:38.541Z,5.10
2019-03-28T14:47:24.426Z,6.35
2019-03-28T14:50:10.566Z,5.15
2019-03-28T14:52:56.923Z,4.10
2019-03-28T14:55:43.030Z,5.53
2019-03-28T14:58:29.034Z,5.62
2019-03-28T15:01:14.839Z,6.37
2019-03-28T15:04:00.572Z,13.20
2019-03-28T15:06:46.570Z,7.22
2019-03-28T15:09:32.555Z,7.75
2019-03-28T15:12:18.322Z,5.85
2019-03-28T15:15:04.436Z,5.25
2019-03-28T15:17:50.470Z,6.95
2019-03-28T15:20:36.588Z,6.37
2019-03-28T15:23:22.393Z,6.50
2019-03-28T15:26:08.336Z,5.95
2019-03-28T15:28:54.218Z,6.33
2019-03-28T15:31:40.045Z,6.65
2019-03-28T15:34:25.947Z,4.65
2019-03-28T15:37:11.818Z,6.72
2019-03-28T15:39:57.730Z,5.97
2019-03-28T15:42:44.495Z,7.05
2019-03-28T15:45:30.967Z,5.08
2019-03-28T15:48:16.824Z,5.25
2019-03-28T15:53:48.266Z,5.08
2019-03-28T15:56:34.084Z,8.20
2019-03-28T15:59:19.920Z,5.10
2019-03-28T16:02:05.862Z,6.15
2019-03-28T16:07:37.155Z,3.92
2019-03-28T16:10:23.119Z,6.80
2019-03-28T16:13:08.980Z,7.45
2019-03-28T16:15:54.999Z,6.15
2019-03-28T16:21:26.933Z,6.87
2019-03-28T16:24:12.937Z,5.28
2019-03-28T16:26:59.227Z,7.85
2019-03-28T16:29:44.949Z,8.55
2019-03-28T16:32:30.875Z,5.85
2019-03-28T16:35:16.843Z,6.28
2019-03-28T16:38:02.714Z,8.35
2019-03-28T16:40:48.634Z,7.65
2019-03-28T16:43:34.516Z,6.05
2019-03-28T16:46:20.248Z,5.75
2019-03-28T16:49:06.396Z,4.67
2019-03-28T16:51:52.286Z,5.40
2019-03-28T16:54:38.198Z,6.30
2019-03-28T16:57:24.068Z,6.53
2019-03-28T17:00:10.717Z,6.00
2019-03-28T17:02:56.551Z,9.33
2019-03-28T17:05:42.330Z,6.35
2019-03-28T17:08:28.459Z,6.95
2019-03-28T17:11:14.681Z,3.85
2019-03-28T17:14:00.569Z,6.08
2019-03-28T17:16:46.424Z,4.80
2019-03-28T17:19:32.286Z,7.28
2019-03-28T17:22:18.249Z,6.47
2019-03-28T17:27:49.457Z,5.90
2019-03-28T17:30:35.453Z,8.45
2019-03-28T17:33:21.492Z,7.15
2019-03-28T17:36:07.309Z,8.03
2019-03-28T17:41:38.599Z,5.65
2019-03-28T17:44:24.363Z,10.05
2019-03-28T17:49:56.731Z,6.00
2019-03-28T17:52:42.688Z,4.70
2019-03-28T17:55:29.722Z,8.68
2019-03-28T17:58:15.961Z,6.33
2019-03-28T18:01:01.796Z,8.45
2019-03-28T18:03:47.677Z,6.33
2019-03-28T18:06:34.885Z,6.70
2019-03-28T18:09:21.427Z,6.25
2019-03-28T18:12:07.101Z,5.92
2019-03-28T18:14:53.025Z,4.83
2019-03-28T18:20:24.339Z,6.45
2019-03-28T18:23:10.201Z,10.03
2019-03-28T18:25:55.988Z,9.25
2019-03-28T18:28:41.929Z,7.12
2019-03-28T18:34:13.238Z,7.45
2019-03-28T18:39:44.603Z,7.37
2019-03-28T18:42:31.035Z,6.00
2019-03-28T18:45:17.976Z,7.42
2019-03-28T18:48:03.944Z,7.33
2019-03-28T18:50:49.771Z,6.22
2019-03-28T18:53:36.265Z,7.78
2019-03-28T18:56:22.618Z,9.40
2019-03-28T18:59:10.181Z,7.42
2019-03-28T19:01:56.071Z,7.45
2019-03-28T19:04:42.143Z,6.30
2019-03-28T19:07:29.285Z,7.03
2019-03-28T19:10:15.481Z,7.28
2019-03-28T19:13:04.560Z,5.87
2019-03-28T19:15:49.984Z,8.30
2019-03-28T19:18:36.434Z,8.33
2019-03-28T19:21:23.889Z,7.03
2019-03-28T19:24:11.675Z,8.88
2019-03-28T19:26:57.945Z,7.28
2019-03-28T19:29:44.515Z,6.25
2019-03-28T19:32:30.877Z,7.92
2019-03-28T19:38:02.152Z,8.45
2019-03-28T19:40:48.037Z,7.67
2019-03-28T19:43:33.972Z,8.43
2019-03-28T19:46:19.984Z,5.67
2019-03-28T19:49:05.940Z,7.65
2019-03-28T19:51:51.838Z,7.35
2019-03-28T19:54:37.955Z,7.17
2019-03-28T19:57:26.321Z,8.00
2019-03-28T20:00:12.042Z,6.90
2019-03-28T20:03:00.390Z,7.55
2019-03-28T20:05:47.938Z,7.85
2019-03-28T20:08:33.884Z,8.10
2019-03-28T20:11:20.353Z,9.20
2019-03-28T20:14:06.565Z,6.95
2019-03-28T20:16:53.804Z,7.92
2019-03-28T20:19:39.977Z,9.60
2019-03-28T20:22:28.333Z,7.42
2019-03-28T20:25:17.248Z,8.38
2019-03-28T20:28:03.310Z,8.43
2019-03-28T20:30:49.986Z,7.25
2019-03-28T20:33:38.076Z,7.60
2019-03-28T20:36:37.013Z,9.88
2019-03-28T20:39:11.809Z,9.10
2019-03-28T20:41:57.889Z,9.25
2019-03-28T20:44:44.747Z,10.80
2019-03-28T20:47:31.187Z,11.48
2019-03-28T20:50:17.923Z,9.88
2019-03-28T20:53:04.783Z,10.25
2019-03-28T20:55:53.519Z,9.88
2019-03-28T20:58:39.814Z,10.00
2019-03-28T21:01:26.084Z,10.32
2019-03-28T21:04:11.843Z,9.48
2019-03-28T21:06:57.854Z,12.33
2019-03-28T21:09:43.686Z,9.53
2019-03-28T21:12:29.384Z,9.80
2019-03-28T21:15:15.341Z,8.95
2019-03-28T21:18:01.300Z,11.45
2019-03-28T21:20:47.813Z,8.35
2019-03-28T21:26:20.040Z,9.63
2019-03-28T21:29:11.631Z,9.98
2019-03-28T21:32:00.101Z,10.35
2019-03-28T21:34:46.999Z,8.73
2019-03-28T21:37:34.465Z,8.35
2019-03-28T21:40:20.471Z,8.15
2019-03-28T21:43:07.910Z,9.55
2019-03-28T21:45:55.336Z,8.63
2019-03-28T21:48:45.089Z,8.85
2019-03-28T21:51:33.189Z,10.00
2019-03-28T21:54:19.388Z,9.98
2019-03-28T21:57:05.361Z,7.97
2019-03-28T21:59:51.630Z,9.28
2019-03-28T22:02:37.720Z,7.47
2019-03-28T22:05:28.483Z,8.70
2019-03-28T22:08:15.314Z,10.10
2019-03-28T22:11:02.031Z,9.38
2019-03-28T22:13:48.476Z,9.83
2019-03-28T22:16:35.361Z,9.55
2019-03-28T22:19:26.083Z,9.40
2019-03-28T22:22:14.920Z,7.83
2019-03-28T22:25:02.412Z,9.68
2019-03-28T22:27:51.451Z,11.73
2019-03-28T22:30:38.862Z,10.55
2019-03-28T22:33:27.845Z,11.45
2019-03-28T22:36:24.410Z,10.28
2019-03-28T22:39:10.297Z,8.28
2019-03-28T22:41:58.179Z,9.83
2019-03-28T22:44:44.762Z,10.50
2019-03-28T22:47:34.795Z,9.55
2019-03-28T22:50:18.950Z,9.68
2019-03-28T22:53:04.907Z,10.45
2019-03-28T22:55:50.580Z,8.70
2019-03-28T22:58:36.568Z,10.78
2019-03-28T23:01:24.601Z,10.82
2019-03-28T23:04:10.604Z,10.45
2019-03-28T23:07:10.114Z,11.55
2019-03-28T23:09:45.260Z,9.03
2019-03-28T23:12:34.096Z,10.88
2019-03-28T23:15:22.110Z,9.35
2019-03-28T23:18:08.802Z,12.23
2019-03-28T23:20:54.859Z,9.68
2019-03-28T23:23:41.131Z,12.50
2019-03-28T23:26:27.362Z,9.98
2019-03-28T23:29:14.048Z,12.10
2019-03-28T23:32:00.115Z,9.80
2019-03-28T23:34:46.062Z,9.53
2019-03-28T23:37:32.017Z,10.78
2019-03-28T23:40:18.628Z,12.70
2019-03-28T23:43:04.556Z,11.48
2019-03-28T23:45:50.826Z,11.05
2019-03-28T23:48:39.526Z,10.38
2019-03-28T23:51:25.826Z,10.40
2019-03-28T23:54:12.748Z,12.70
2019-03-28T23:56:58.901Z,11.65
2019-03-28T23:59:44.742Z,11.83
